createdAt,value
2017-08-12T00:01:02.883Z,15.30
2017-08-12T00:03:29.181Z,15.30
2017-08-12T00:05:55.460Z,15.10
2017-08-12T00:08:21.773Z,15.10
2017-08-12T00:10:48.024Z,15.10
2017-08-12T00:13:14.694Z,15.10
2017-08-12T00:15:40.941Z,15.00
2017-08-12T00:18:07.201Z,15.10
2017-08-12T00:20:33.507Z,15.10
2017-08-12T00:22:59.761Z,15.20
2017-08-12T00:25:26.048Z,15.10
2017-08-12T00:27:52.312Z,15.20
2017-08-12T00:30:18.600Z,15.30
2017-08-12T00:32:45.254Z,15.30
2017-08-12T00:35:11.957Z,15.40
2017-08-12T00:37:38.258Z,15.10
2017-08-12T00:40:04.572Z,15.10
2017-08-12T00:42:30.864Z,15.00
2017-08-12T00:44:57.166Z,15.00
2017-08-12T00:47:23.466Z,15.00
2017-08-12T00:49:49.775Z,15.00
2017-08-12T00:52:16.081Z,14.90
2017-08-12T00:54:42.379Z,15.00
2017-08-12T00:57:08.718Z,15.00
2017-08-12T00:59:35.047Z,15.10
2017-08-12T01:02:01.360Z,15.20
2017-08-12T01:04:27.665Z,15.20
2017-08-12T01:06:53.948Z,15.20
2017-08-12T01:09:20.227Z,15.20
2017-08-12T01:11:46.500Z,15.10
2017-08-12T01:14:12.789Z,15.10
2017-08-12T01:16:39.070Z,15.10
2017-08-12T01:19:05.638Z,15.10
2017-08-12T01:21:31.914Z,15.10
2017-08-12T01:23:58.195Z,15.10
2017-08-12T01:26:24.499Z,15.00
2017-08-12T01:28:50.774Z,15.00
2017-08-12T01:31:17.056Z,15.10
2017-08-12T01:33:43.341Z,15.20
2017-08-12T01:36:09.635Z,15.40
2017-08-12T01:38:36.323Z,15.40
2017-08-12T01:41:02.639Z,15.40
2017-08-12T01:43:28.903Z,15.30
2017-08-12T01:45:55.196Z,15.30
2017-08-12T01:48:21.474Z,15.20
2017-08-12T01:50:48.101Z,15.10
2017-08-12T01:53:14.377Z,15.20
2017-08-12T01:55:40.651Z,15.10
2017-08-12T01:58:06.960Z,15.30
2017-08-12T02:00:33.259Z,15.40
2017-08-12T02:02:59.565Z,15.40
2017-08-12T02:05:26.229Z,15.30
2017-08-12T02:07:52.526Z,15.30
2017-08-12T02:10:18.789Z,15.30
2017-08-12T02:12:45.082Z,15.30
2017-08-12T02:15:11.364Z,15.50
2017-08-12T02:17:37.676Z,15.50
2017-08-12T02:20:03.971Z,15.20
2017-08-12T02:22:30.241Z,15.20
2017-08-12T02:24:56.529Z,15.20
2017-08-12T02:27:22.788Z,15.30
2017-08-12T02:29:49.098Z,15.10
2017-08-12T02:32:15.361Z,15.20
2017-08-12T02:34:41.670Z,15.10
2017-08-12T02:37:07.939Z,15.30
2017-08-12T02:39:34.240Z,15.20
2017-08-12T02:42:00.551Z,15.30
2017-08-12T02:44:26.832Z,15.30
2017-08-12T02:46:53.096Z,15.40
2017-08-12T02:49:19.410Z,15.40
2017-08-12T02:51:45.692Z,15.50
2017-08-12T02:54:11.978Z,15.10
2017-08-12T02:56:38.265Z,15.00
2017-08-12T02:59:04.524Z,14.90
2017-08-12T03:01:30.814Z,15.10
2017-08-12T03:03:57.088Z,15.20
2017-08-12T03:06:23.374Z,15.30
2017-08-12T03:08:49.642Z,15.30
2017-08-12T03:11:15.910Z,15.40
2017-08-12T03:13:42.216Z,15.40
2017-08-12T03:16:08.510Z,15.50
2017-08-12T03:18:34.788Z,15.60
2017-08-12T03:21:01.064Z,15.60
2017-08-12T03:23:27.635Z,15.50
2017-08-12T03:25:53.897Z,15.50
2017-08-12T03:28:20.174Z,15.30
2017-08-12T03:30:46.496Z,15.20
2017-08-12T03:33:12.765Z,15.10
2017-08-12T03:35:39.072Z,15.00
2017-08-12T03:38:05.374Z,14.90
2017-08-12T03:40:31.672Z,14.90
2017-08-12T03:42:57.956Z,14.80
2017-08-12T03:45:24.248Z,15.00
2017-08-12T03:47:50.527Z,15.10
2017-08-12T03:50:16.793Z,15.20
2017-08-12T03:52:43.065Z,15.30
2017-08-12T03:55:09.347Z,15.20
2017-08-12T03:57:35.646Z,15.20
2017-08-12T04:00:01.936Z,14.90
2017-08-12T04:02:28.245Z,14.80
2017-08-12T04:04:54.569Z,14.80
2017-08-12T04:07:20.858Z,14.70
2017-08-12T04:09:47.139Z,14.80
2017-08-12T04:12:13.394Z,14.90
2017-08-12T04:14:39.663Z,14.90
2017-08-12T04:17:05.970Z,15.00
2017-08-12T04:19:32.254Z,15.00
2017-08-12T04:21:58.509Z,14.90
2017-08-12T04:24:24.804Z,14.80
2017-08-12T04:26:51.074Z,14.80
2017-08-12T04:29:17.361Z,14.80
2017-08-12T04:31:43.617Z,14.80
2017-08-12T04:34:10.289Z,14.90
2017-08-12T04:36:36.553Z,14.70
2017-08-12T04:39:02.880Z,14.80
2017-08-12T04:41:29.545Z,14.80
2017-08-12T04:43:55.827Z,14.80
2017-08-12T04:46:22.165Z,14.90
2017-08-12T04:48:48.793Z,15.00
2017-08-12T04:51:15.071Z,15.00
2017-08-12T04:53:41.360Z,15.00
2017-08-12T04:56:07.653Z,15.00
2017-08-12T04:58:33.933Z,14.90
2017-08-12T05:01:00.589Z,14.90
2017-08-12T05:03:27.264Z,14.90
2017-08-12T05:05:53.560Z,14.90
2017-08-12T05:08:19.823Z,15.00
2017-08-12T05:10:46.108Z,15.10
2017-08-12T05:13:12.404Z,15.10
2017-08-12T05:15:38.672Z,15.00
2017-08-12T05:18:04.965Z,15.20
2017-08-12T05:20:31.237Z,15.30
2017-08-12T05:22:57.538Z,15.40
2017-08-12T05:25:23.863Z,15.50
2017-08-12T05:27:50.522Z,15.60
2017-08-12T05:30:16.806Z,15.60
2017-08-12T05:32:43.069Z,15.60
2017-08-12T05:35:09.398Z,15.60
2017-08-12T05:37:35.680Z,15.70
2017-08-12T05:40:01.986Z,15.40
2017-08-12T05:42:28.267Z,15.30
2017-08-12T05:44:54.564Z,15.20
2017-08-12T05:47:20.907Z,15.30
2017-08-12T05:49:47.664Z,15.20
2017-08-12T05:52:13.997Z,15.10
2017-08-12T05:54:40.264Z,15.00
2017-08-12T05:57:06.556Z,15.10
2017-08-12T05:59:32.831Z,15.20
2017-08-12T06:01:59.158Z,15.30
2017-08-12T06:04:25.435Z,15.50
2017-08-12T06:06:51.746Z,15.80
2017-08-12T06:09:17.997Z,15.90
2017-08-12T06:11:44.273Z,15.90
2017-08-12T06:14:10.562Z,15.90
2017-08-12T06:16:36.879Z,15.90
2017-08-12T06:19:03.151Z,15.90
2017-08-12T06:21:29.432Z,15.90
2017-08-12T06:23:55.730Z,15.80
2017-08-12T06:26:22.013Z,15.70
2017-08-12T06:28:48.327Z,15.70
2017-08-12T06:31:14.668Z,15.50
2017-08-12T06:33:40.981Z,15.40
2017-08-12T06:36:07.306Z,15.40
2017-08-12T06:38:33.644Z,15.50
2017-08-12T06:40:59.919Z,15.60
2017-08-12T06:43:26.526Z,15.70
2017-08-12T06:45:52.819Z,15.90
2017-08-12T06:48:19.093Z,15.90
2017-08-12T06:50:45.380Z,15.90
2017-08-12T06:53:11.664Z,15.70
2017-08-12T06:55:37.967Z,15.50
2017-08-12T06:58:04.250Z,15.60
2017-08-12T07:00:30.524Z,15.60
2017-08-12T07:02:56.826Z,15.70
2017-08-12T07:05:23.117Z,15.60
2017-08-12T07:07:49.426Z,15.60
2017-08-12T07:10:15.752Z,15.30
2017-08-12T07:12:42.054Z,15.30
2017-08-12T07:15:08.355Z,15.40
2017-08-12T07:17:34.644Z,15.60
2017-08-12T07:20:00.932Z,15.80
2017-08-12T07:22:27.221Z,15.80
2017-08-12T07:24:53.523Z,16.10
2017-08-12T07:27:19.837Z,16.30
2017-08-12T07:29:46.097Z,16.10
2017-08-12T07:32:12.426Z,16.30
2017-08-12T07:34:39.073Z,16.40
2017-08-12T07:37:05.742Z,16.20
2017-08-12T07:39:32.054Z,16.30
2017-08-12T07:41:58.676Z,16.40
2017-08-12T07:44:25.011Z,16.60
2017-08-12T07:46:51.284Z,16.60
2017-08-12T07:49:17.580Z,16.30
2017-08-12T07:51:43.839Z,16.10
2017-08-12T07:54:10.458Z,16.40
2017-08-12T07:56:36.752Z,16.80
2017-08-12T07:59:03.044Z,17.20
2017-08-12T08:01:29.380Z,17.10
2017-08-12T08:03:55.684Z,16.80
2017-08-12T08:06:21.980Z,16.70
2017-08-12T08:08:48.240Z,16.60
2017-08-12T08:11:14.527Z,16.50
2017-08-12T08:13:40.810Z,16.70
2017-08-12T08:16:07.130Z,16.50
2017-08-12T08:18:33.542Z,16.60
2017-08-12T08:21:00.183Z,16.80
2017-08-12T08:23:26.466Z,16.90
2017-08-12T08:25:52.752Z,16.70
2017-08-12T08:28:19.052Z,17.00
2017-08-12T08:30:45.350Z,17.10
2017-08-12T08:33:11.668Z,16.80
2017-08-12T08:35:37.937Z,16.90
2017-08-12T08:38:04.246Z,17.10
2017-08-12T08:40:31.162Z,17.10
2017-08-12T08:42:57.474Z,17.30
2017-08-12T08:45:23.768Z,17.70
2017-08-12T08:47:50.507Z,17.80
2017-08-12T08:50:17.609Z,17.80
2017-08-12T08:52:43.936Z,17.40
2017-08-12T08:55:10.234Z,17.50
2017-08-12T08:57:36.502Z,17.40
2017-08-12T09:00:02.795Z,17.20
2017-08-12T09:02:29.081Z,17.10
2017-08-12T09:04:55.377Z,17.40
2017-08-12T09:07:21.774Z,17.20
2017-08-12T09:09:48.093Z,17.20
2017-08-12T09:12:14.394Z,17.60
2017-08-12T09:14:40.672Z,17.70
2017-08-12T09:17:06.966Z,18.20
2017-08-12T09:19:33.235Z,18.70
2017-08-12T09:21:59.797Z,19.00
2017-08-12T09:24:26.076Z,19.20
2017-08-12T09:26:52.356Z,19.00
2017-08-12T09:29:18.666Z,18.90
2017-08-12T09:31:44.953Z,19.20
2017-08-12T09:34:11.263Z,19.30
2017-08-12T09:36:37.554Z,19.00
2017-08-12T09:39:03.925Z,19.30
2017-08-12T09:41:30.212Z,19.30
2017-08-12T09:43:56.774Z,19.40
2017-08-12T09:46:23.048Z,19.40
2017-08-12T09:48:49.287Z,19.20
2017-08-12T09:51:16.370Z,19.00
2017-08-12T09:53:43.204Z,19.00
2017-08-12T09:56:10.974Z,19.00
2017-08-12T09:58:37.233Z,19.10
2017-08-12T10:01:04.520Z,19.40
2017-08-12T10:03:30.837Z,19.50
2017-08-12T10:05:57.160Z,20.00
2017-08-12T10:08:23.433Z,19.90
2017-08-12T10:10:51.453Z,20.10
2017-08-12T10:13:17.751Z,19.70
2017-08-12T10:15:44.065Z,20.10
2017-08-12T10:18:10.369Z,20.40
2017-08-12T10:20:36.648Z,20.70
2017-08-12T10:23:02.945Z,20.70
2017-08-12T10:25:29.236Z,20.70
2017-08-12T10:27:55.785Z,20.60
2017-08-12T10:30:22.112Z,20.10
2017-08-12T10:32:48.476Z,20.20
2017-08-12T10:35:14.790Z,20.10
2017-08-12T10:37:41.145Z,20.30
2017-08-12T10:40:07.488Z,20.70
2017-08-12T10:42:33.749Z,20.50
2017-08-12T10:45:00.081Z,20.80
2017-08-12T10:47:26.371Z,21.20
2017-08-12T10:49:52.967Z,21.10
2017-08-12T10:52:19.258Z,21.70
2017-08-12T10:54:45.526Z,22.30
2017-08-12T10:57:12.212Z,20.80
2017-08-12T10:59:38.557Z,20.80
2017-08-12T11:02:04.947Z,20.00
2017-08-12T11:04:31.292Z,20.20
2017-08-12T11:06:57.622Z,20.40
2017-08-12T11:09:23.921Z,21.00
2017-08-12T11:11:51.106Z,21.40
2017-08-12T11:14:17.392Z,21.40
2017-08-12T11:16:43.757Z,21.20
2017-08-12T11:19:10.066Z,22.10
2017-08-12T11:21:36.713Z,22.60
2017-08-12T11:24:03.618Z,22.70
2017-08-12T11:26:29.874Z,22.10
2017-08-12T11:28:56.179Z,21.20
2017-08-12T11:31:22.456Z,20.10
2017-08-12T11:33:49.159Z,19.40
2017-08-12T11:36:15.443Z,19.00
2017-08-12T11:38:44.575Z,18.60
2017-08-12T11:41:10.882Z,18.40
2017-08-12T11:43:37.165Z,18.50
2017-08-12T11:46:03.437Z,18.50
2017-08-12T11:48:29.727Z,18.50
2017-08-12T11:50:56.025Z,19.80
2017-08-12T11:53:22.303Z,20.80
2017-08-12T11:55:48.618Z,22.40
2017-08-12T11:58:15.266Z,23.00
2017-08-12T12:03:07.947Z,21.80
2017-08-12T12:05:34.254Z,21.30
2017-08-12T12:08:00.556Z,23.10
2017-08-12T12:10:26.854Z,25.10
2017-08-12T12:12:53.511Z,26.70
2017-08-12T12:15:19.850Z,25.50
2017-08-12T12:17:46.211Z,24.60
2017-08-12T12:20:12.531Z,23.30
2017-08-12T12:22:39.207Z,21.40
2017-08-12T12:25:05.516Z,21.40
2017-08-12T12:27:31.876Z,21.50
2017-08-12T12:29:58.177Z,21.40
2017-08-12T12:32:24.437Z,22.00
2017-08-12T12:34:50.743Z,21.70
2017-08-12T12:37:17.037Z,21.20
2017-08-12T12:39:43.346Z,20.50
2017-08-12T12:42:09.621Z,20.30
2017-08-12T12:44:35.894Z,20.00
2017-08-12T12:47:02.189Z,19.80
2017-08-12T12:49:28.465Z,20.00
2017-08-12T12:51:54.763Z,20.50
2017-08-12T12:54:21.056Z,21.50
2017-08-12T12:56:47.627Z,24.90
2017-08-12T12:59:13.898Z,28.70
2017-08-12T13:01:40.196Z,29.80
2017-08-12T13:04:06.500Z,29.40
2017-08-12T13:06:32.770Z,31.40
2017-08-12T13:08:59.059Z,33.60
2017-08-12T13:11:25.357Z,31.80
2017-08-12T13:13:52.005Z,25.50
2017-08-12T13:16:18.653Z,23.90
2017-08-12T13:18:45.350Z,23.90
2017-08-12T13:21:11.660Z,22.60
2017-08-12T13:23:37.964Z,22.00
2017-08-12T13:26:04.248Z,21.20
2017-08-12T13:28:30.564Z,21.90
2017-08-12T13:30:56.847Z,24.40
2017-08-12T13:33:23.108Z,26.30
2017-08-12T13:35:49.401Z,25.40
2017-08-12T13:38:15.743Z,26.00
2017-08-12T13:40:42.006Z,26.60
2017-08-12T13:43:08.322Z,25.10
2017-08-12T13:45:34.630Z,24.00
2017-08-12T13:48:01.197Z,23.00
2017-08-12T13:50:27.500Z,22.50
2017-08-12T13:52:54.465Z,22.10
2017-08-12T13:55:21.032Z,22.40
2017-08-12T13:57:47.272Z,22.60
2017-08-12T14:00:13.528Z,22.90
2017-08-12T14:02:39.823Z,22.70
2017-08-12T14:05:06.120Z,22.20
2017-08-12T14:07:32.409Z,22.10
2017-08-12T14:09:58.679Z,21.70
2017-08-12T14:12:24.977Z,21.40
2017-08-12T14:14:51.242Z,21.20
2017-08-12T14:17:17.574Z,21.00
2017-08-12T14:19:43.837Z,20.70
2017-08-12T14:22:10.481Z,20.40
2017-08-12T14:24:37.148Z,20.10
2017-08-12T14:27:03.832Z,20.10
2017-08-12T14:29:30.112Z,20.00
2017-08-12T14:31:56.406Z,20.00
2017-08-12T14:34:23.073Z,20.00
2017-08-12T14:36:49.370Z,20.00
2017-08-12T14:39:15.695Z,20.10
2017-08-12T14:41:41.974Z,20.30
2017-08-12T14:44:08.249Z,20.70
2017-08-12T14:46:34.525Z,21.10
2017-08-12T14:49:01.118Z,20.80
2017-08-12T14:51:27.407Z,20.90
2017-08-12T14:53:53.693Z,21.50
2017-08-12T14:56:20.354Z,21.90
2017-08-12T14:58:46.617Z,21.90
2017-08-12T15:01:12.911Z,21.80
2017-08-12T15:03:39.185Z,22.00
2017-08-12T15:06:05.473Z,22.40
2017-08-12T15:08:31.746Z,22.70
2017-08-12T15:10:58.406Z,22.50
2017-08-12T15:13:24.688Z,22.40
2017-08-12T15:15:50.946Z,21.90
2017-08-12T15:18:17.238Z,21.70
2017-08-12T15:20:43.510Z,21.30
2017-08-12T15:23:09.821Z,21.30
2017-08-12T15:25:36.092Z,21.30
2017-08-12T15:28:02.766Z,21.10
2017-08-12T15:30:29.092Z,21.10
2017-08-12T15:32:55.374Z,20.90
2017-08-12T15:35:21.691Z,21.00
2017-08-12T15:37:47.994Z,21.20
2017-08-12T15:40:14.326Z,21.30
2017-08-12T15:42:40.600Z,21.20
2017-08-12T15:45:07.159Z,21.40
2017-08-12T15:47:33.413Z,21.60
2017-08-12T15:49:59.761Z,21.30
2017-08-12T15:52:26.031Z,21.20
2017-08-12T15:54:52.691Z,20.90
2017-08-12T15:57:18.994Z,20.80
2017-08-12T15:59:45.263Z,20.70
2017-08-12T16:02:11.561Z,20.40
2017-08-12T16:04:38.206Z,20.00
2017-08-12T16:07:04.519Z,20.00
2017-08-12T16:09:30.815Z,20.10
2017-08-12T16:11:57.133Z,20.00
2017-08-12T16:14:23.439Z,19.90
2017-08-12T16:16:49.718Z,19.80
2017-08-12T16:19:16.037Z,19.70
2017-08-12T16:21:42.363Z,19.80
2017-08-12T16:24:08.663Z,19.70
2017-08-12T16:26:34.963Z,19.90
2017-08-12T16:29:01.232Z,19.90
2017-08-12T16:31:27.538Z,19.80
2017-08-12T16:33:53.800Z,19.80
2017-08-12T16:36:20.889Z,19.90
2017-08-12T16:38:47.182Z,19.80
2017-08-12T16:41:13.465Z,19.90
2017-08-12T16:43:40.123Z,20.00
2017-08-12T16:46:06.822Z,19.90
2017-08-12T16:48:33.110Z,19.90
2017-08-12T16:50:59.406Z,19.90
2017-08-12T16:53:25.708Z,19.80
2017-08-12T16:55:52.022Z,19.60
2017-08-12T16:58:18.321Z,19.80
2017-08-12T17:00:44.585Z,19.70
2017-08-12T17:03:10.875Z,19.80
2017-08-12T17:05:37.146Z,19.90
2017-08-12T17:08:03.903Z,20.00
2017-08-12T17:10:30.209Z,19.90
2017-08-12T17:12:56.522Z,19.70
2017-08-12T17:15:22.829Z,19.80
2017-08-12T17:17:49.083Z,20.00
2017-08-12T17:20:15.387Z,20.30
2017-08-12T17:22:41.710Z,20.70
2017-08-12T17:25:08.003Z,20.70
2017-08-12T17:27:34.343Z,20.70
2017-08-12T17:30:00.855Z,20.90
2017-08-12T17:32:27.165Z,21.00
2017-08-12T17:34:53.502Z,21.10
2017-08-12T17:37:20.729Z,21.00
2017-08-12T17:39:46.998Z,20.90
2017-08-12T17:42:13.305Z,20.60
2017-08-12T17:44:39.587Z,20.60
2017-08-12T17:47:05.919Z,20.60
2017-08-12T17:49:32.562Z,20.10
2017-08-12T17:52:00.006Z,20.00
2017-08-12T17:54:26.677Z,20.00
2017-08-12T17:56:52.993Z,20.00
2017-08-12T17:59:20.190Z,20.20
2017-08-12T18:01:46.475Z,20.20
2017-08-12T18:04:12.779Z,20.00
2017-08-12T18:06:39.460Z,19.70
2017-08-12T18:09:05.753Z,19.70
2017-08-12T18:11:32.085Z,19.70
2017-08-12T18:13:58.728Z,19.60
2017-08-12T18:16:25.047Z,19.60
2017-08-12T18:18:52.610Z,19.60
2017-08-12T18:21:19.300Z,19.60
2017-08-12T18:23:45.638Z,19.60
2017-08-12T18:26:12.236Z,19.40
2017-08-12T18:28:38.506Z,19.20
2017-08-12T18:31:04.770Z,19.20
2017-08-12T18:33:31.430Z,19.20
2017-08-12T18:35:57.696Z,19.20
2017-08-12T18:38:24.016Z,19.20
2017-08-12T18:40:50.299Z,19.20
2017-08-12T18:43:16.589Z,19.10
2017-08-12T18:45:42.873Z,19.00
2017-08-12T18:48:09.202Z,18.90
2017-08-12T18:50:35.556Z,18.90
2017-08-12T18:53:02.384Z,18.90
2017-08-12T18:55:28.766Z,18.90
2017-08-12T18:57:55.228Z,18.90
2017-08-12T19:00:21.623Z,18.80
2017-08-12T19:02:47.941Z,18.80
2017-08-12T19:05:14.322Z,18.70
2017-08-12T19:07:40.772Z,18.70
2017-08-12T19:10:07.694Z,18.70
2017-08-12T19:12:34.389Z,18.90
2017-08-12T19:16:12.630Z,18.90
2017-08-12T19:18:39.344Z,18.70
2017-08-12T19:21:05.682Z,18.70
2017-08-12T19:23:32.008Z,18.70
2017-08-12T19:25:59.550Z,18.80
2017-08-12T19:28:25.920Z,18.80
2017-08-12T19:30:52.426Z,18.90
2017-08-12T19:33:18.883Z,18.90
2017-08-12T19:35:45.246Z,18.80
2017-08-12T19:38:11.616Z,18.80
2017-08-12T19:40:38.179Z,18.70
2017-08-12T19:43:04.590Z,18.50
2017-08-12T19:45:30.931Z,18.50
2017-08-12T19:47:57.227Z,18.50
2017-08-12T19:50:23.509Z,18.50
2017-08-12T19:52:50.656Z,18.60
2017-08-12T19:55:16.966Z,18.50
2017-08-12T19:57:43.743Z,18.40
2017-08-12T20:00:10.029Z,18.30
2017-08-12T20:02:36.365Z,18.40
2017-08-12T20:05:02.691Z,18.60
2017-08-12T20:07:29.034Z,18.60
2017-08-12T20:09:55.390Z,18.70
2017-08-12T20:12:21.705Z,18.60
2017-08-12T20:14:47.998Z,18.60
2017-08-12T20:17:14.288Z,18.50
2017-08-12T20:19:41.216Z,18.40
2017-08-12T20:22:07.530Z,18.50
2017-08-12T20:24:34.289Z,18.70
2017-08-12T20:27:00.558Z,18.70
2017-08-12T20:29:26.856Z,18.60
2017-08-12T20:31:53.176Z,18.60
2017-08-12T20:34:19.491Z,18.60
2017-08-12T20:36:45.780Z,18.60
2017-08-12T20:39:12.729Z,18.80
2017-08-12T20:41:39.036Z,18.60
2017-08-12T20:44:05.708Z,18.40
2017-08-12T20:46:32.014Z,18.40
2017-08-12T20:48:58.306Z,18.30
2017-08-12T20:51:25.174Z,18.30
2017-08-12T20:53:51.809Z,18.30
2017-08-12T20:56:18.125Z,18.30
2017-08-12T20:58:44.440Z,18.40
2017-08-12T21:01:10.809Z,18.50
2017-08-12T21:03:37.119Z,18.60
2017-08-12T21:06:03.400Z,18.40
2017-08-12T21:08:29.736Z,18.40
2017-08-12T21:10:56.082Z,18.40
2017-08-12T21:13:22.382Z,18.20
2017-08-12T21:15:48.669Z,18.10
2017-08-12T21:18:15.388Z,18.10
2017-08-12T21:20:41.672Z,18.20
2017-08-12T21:23:07.958Z,18.30
2017-08-12T21:25:34.266Z,18.20
2017-08-12T21:28:00.551Z,18.20
2017-08-12T21:30:26.854Z,18.30
2017-08-12T21:32:53.198Z,18.30
2017-08-12T21:35:19.513Z,18.30
2017-08-12T21:37:45.794Z,18.30
2017-08-12T21:40:12.080Z,18.30
2017-08-12T21:42:38.358Z,18.30
2017-08-12T21:45:04.677Z,18.20
2017-08-12T21:47:30.986Z,18.10
2017-08-12T21:49:57.248Z,18.10
2017-08-12T21:52:23.540Z,18.10
2017-08-12T21:54:50.195Z,18.10
2017-08-12T21:57:16.515Z,18.00
2017-08-12T21:59:42.802Z,18.10
2017-08-12T22:02:09.126Z,18.00
2017-08-12T22:04:35.989Z,17.80
2017-08-12T22:07:02.613Z,17.90
2017-08-12T22:09:28.869Z,17.90
2017-08-12T22:11:55.200Z,17.90
2017-08-12T22:14:21.893Z,17.80
2017-08-12T22:16:48.167Z,17.80
2017-08-12T22:19:14.478Z,17.70
2017-08-12T22:21:40.760Z,17.90
2017-08-12T22:24:07.115Z,17.90
2017-08-12T22:26:33.441Z,17.80
2017-08-12T22:29:01.815Z,17.70
2017-08-12T22:31:29.050Z,17.90
2017-08-12T22:33:56.552Z,18.00
2017-08-12T22:36:23.845Z,17.90
2017-08-12T22:38:51.654Z,17.70
2017-08-12T22:41:19.539Z,17.70
2017-08-12T22:43:48.354Z,17.80
2017-08-12T22:46:15.202Z,17.80
2017-08-12T22:48:42.420Z,17.70
2017-08-12T22:51:10.020Z,17.70
2017-08-12T22:53:36.297Z,17.80
2017-08-12T22:56:02.587Z,17.80
2017-08-12T22:58:28.850Z,17.80
2017-08-12T23:00:55.180Z,17.60
2017-08-12T23:03:21.454Z,17.60
2017-08-12T23:05:48.059Z,17.40
2017-08-12T23:08:14.339Z,17.60
2017-08-12T23:10:40.613Z,17.40
2017-08-12T23:13:06.951Z,17.30
2017-08-12T23:15:33.217Z,17.20
2017-08-12T23:17:59.505Z,17.30
2017-08-12T23:20:25.759Z,17.40
2017-08-12T23:22:52.416Z,17.50
2017-08-12T23:25:18.716Z,17.50
2017-08-12T23:27:45.311Z,17.40
2017-08-12T23:30:11.588Z,17.40
2017-08-12T23:32:37.885Z,17.40
2017-08-12T23:35:04.177Z,17.40
2017-08-12T23:37:30.457Z,17.20
2017-08-12T23:39:56.777Z,17.20
2017-08-12T23:42:23.075Z,17.20
2017-08-12T23:44:49.374Z,17.20
2017-08-12T23:47:15.653Z,17.30
2017-08-12T23:49:41.953Z,17.50
2017-08-12T23:52:08.222Z,17.70
2017-08-12T23:54:34.465Z,17.80
2017-08-12T23:57:00.759Z,17.90
2017-08-12T23:59:27.033Z,17.80
